createdAt,value
2023-09-28T00:01:16.095Z,8.20
2023-09-28T00:03:48.559Z,10.60
2023-09-28T00:06:17.144Z,18.70
2023-09-28T00:08:44.283Z,3.10
2023-09-28T00:11:12.463Z,19.50
2023-09-28T00:13:40.985Z,24.70
2023-09-28T00:16:10.184Z,27.60
2023-09-28T00:18:37.648Z,31.10
2023-09-28T00:21:05.982Z,31.60
2023-09-28T00:23:33.239Z,36.10
2023-09-28T00:26:01.559Z,41.40
2023-09-28T00:28:28.912Z,45.90
2023-09-28T00:30:58.795Z,46.60
2023-09-28T00:33:25.978Z,52.10
2023-09-28T00:35:54.154Z,54.60
2023-09-28T00:38:21.246Z,56.50
2023-09-28T00:40:49.405Z,58.30
2023-09-28T00:43:25.714Z,61.90
2023-09-28T00:45:53.873Z,60.20
2023-09-28T00:48:22.671Z,58.60
2023-09-28T00:50:52.845Z,58.30
2023-09-28T00:53:22.483Z,49.70
2023-09-28T00:55:51.188Z,45.20
2023-09-28T00:58:18.348Z,45.10
2023-09-28T01:00:46.484Z,47.20
2023-09-28T01:03:13.748Z,45.20
2023-09-28T01:05:43.386Z,46.30
2023-09-28T01:08:13.437Z,47.00
2023-09-28T01:10:46.055Z,40.30
2023-09-28T01:13:16.781Z,41.50
2023-09-28T01:15:47.680Z,44.00
2023-09-28T01:18:16.767Z,42.80
2023-09-28T01:20:47.512Z,41.70
2023-09-28T01:23:16.333Z,51.90
2023-09-28T01:25:50.629Z,99.90
2023-09-28T01:28:18.870Z,99.90
2023-09-28T01:30:47.829Z,99.90
2023-09-28T01:33:15.168Z,99.90
2023-09-28T01:35:43.369Z,99.90
2023-09-28T01:38:20.109Z,99.90
2023-09-28T01:40:49.543Z,99.90
2023-09-28T01:43:17.987Z,99.90
2023-09-28T01:45:46.626Z,99.90
2023-09-28T01:48:14.163Z,99.90
2023-09-28T01:50:42.392Z,99.90
2023-09-28T01:53:09.570Z,99.90
2023-09-28T01:55:39.558Z,99.90
2023-09-28T01:58:09.166Z,99.90
2023-09-28T02:00:37.765Z,99.90
2023-09-28T02:03:06.522Z,99.90
2023-09-28T02:05:34.882Z,99.90
2023-09-28T02:08:03.633Z,99.90
2023-09-28T02:10:31.850Z,99.90
2023-09-28T02:13:00.494Z,99.90
2023-09-28T02:15:28.613Z,99.90
2023-09-28T02:17:55.882Z,99.90
2023-09-28T02:20:24.762Z,99.90
2023-09-28T02:22:54.411Z,99.90
2023-09-28T02:25:24.242Z,99.90
2023-09-28T02:27:52.448Z,99.90
2023-09-28T02:30:24.361Z,99.90
2023-09-28T02:32:53.492Z,99.90
2023-09-28T02:35:22.646Z,99.90
2023-09-28T02:37:52.617Z,99.90
2023-09-28T02:40:21.546Z,99.90
2023-09-28T02:42:49.778Z,99.90
2023-09-28T02:45:18.949Z,99.90
2023-09-28T02:47:49.749Z,99.90
2023-09-28T02:50:20.051Z,99.90
2023-09-28T02:52:48.667Z,99.90
2023-09-28T02:55:19.330Z,99.90
2023-09-28T02:57:48.155Z,99.90
2023-09-28T03:00:20.524Z,99.90
2023-09-28T03:02:50.790Z,99.90
2023-09-28T03:05:20.149Z,99.90
2023-09-28T03:07:47.576Z,99.90
2023-09-28T03:10:16.311Z,99.90
2023-09-28T03:12:46.179Z,99.90
2023-09-28T03:15:17.820Z,99.90
2023-09-28T03:17:47.508Z,99.90
2023-09-28T03:20:19.632Z,99.90
2023-09-28T03:22:48.596Z,99.90
2023-09-28T03:25:18.353Z,99.90
2023-09-28T03:27:46.785Z,99.90
2023-09-28T03:30:16.345Z,99.90
2023-09-28T03:32:45.007Z,99.90
2023-09-28T03:35:13.195Z,99.90
2023-09-28T03:37:43.624Z,99.90
2023-09-28T03:40:13.152Z,99.90
2023-09-28T03:42:42.627Z,99.90
2023-09-28T03:45:12.124Z,99.90
2023-09-28T03:47:40.737Z,99.90
2023-09-28T03:50:11.280Z,99.90
2023-09-28T03:52:39.963Z,99.90
2023-09-28T03:55:11.894Z,99.90
2023-09-28T03:57:40.120Z,99.90
2023-09-28T04:00:13.569Z,99.90
2023-09-28T04:02:43.244Z,99.90
2023-09-28T04:05:12.120Z,99.90
2023-09-28T04:07:41.503Z,99.90
2023-09-28T04:10:13.062Z,99.90
2023-09-28T04:12:42.081Z,99.90
2023-09-28T04:15:10.852Z,99.90
2023-09-28T04:17:42.011Z,99.90
2023-09-28T04:20:14.410Z,99.90
2023-09-28T04:22:43.188Z,99.90
2023-09-28T04:25:13.137Z,99.90
2023-09-28T04:27:41.262Z,99.90
2023-09-28T04:30:11.341Z,99.90
2023-09-28T04:32:39.544Z,99.90
2023-09-28T04:35:12.136Z,99.90
2023-09-28T04:37:41.225Z,99.90
2023-09-28T04:40:12.064Z,99.90
2023-09-28T04:42:43.760Z,99.90
2023-09-28T04:45:13.038Z,99.90
2023-09-28T04:47:41.281Z,99.90
2023-09-28T04:50:10.271Z,99.90
2023-09-28T04:52:38.452Z,99.90
2023-09-28T04:55:09.055Z,99.90
2023-09-28T04:57:37.640Z,99.90
2023-09-28T05:00:09.862Z,99.90
2023-09-28T05:02:40.342Z,99.90
2023-09-28T05:05:10.769Z,99.90
2023-09-28T05:07:38.937Z,99.90
2023-09-28T05:10:09.217Z,99.90
2023-09-28T05:12:37.375Z,99.90
2023-09-28T05:15:09.365Z,99.90
2023-09-28T05:17:37.576Z,99.90
2023-09-28T05:20:06.490Z,99.90
2023-09-28T05:22:34.661Z,99.90
2023-09-28T05:25:03.722Z,99.90
2023-09-28T05:27:31.778Z,99.90
2023-09-28T05:29:59.857Z,99.90
2023-09-28T05:32:30.066Z,99.90
2023-09-28T05:34:58.271Z,99.90
2023-09-28T05:37:26.744Z,99.90
2023-09-28T05:39:56.025Z,99.90
2023-09-28T05:42:24.159Z,99.90
2023-09-28T05:44:53.538Z,99.90
2023-09-28T05:47:24.048Z,99.90
2023-09-28T05:49:54.038Z,99.90
2023-09-28T05:52:23.744Z,99.90
2023-09-28T05:54:51.850Z,99.90
2023-09-28T05:57:21.858Z,99.90
2023-09-28T05:59:50.104Z,99.90
2023-09-28T06:02:18.345Z,99.90
2023-09-28T06:04:46.546Z,99.90
2023-09-28T06:07:16.350Z,99.90
2023-09-28T06:09:44.476Z,99.90
2023-09-28T06:12:12.620Z,99.90
2023-09-28T06:14:40.794Z,99.90
2023-09-28T06:17:08.982Z,99.90
2023-09-28T06:19:47.546Z,99.90
2023-09-28T06:22:24.769Z,99.90
2023-09-28T06:24:52.960Z,99.90
2023-09-28T06:27:21.037Z,99.90
2023-09-28T06:29:54.310Z,99.90
2023-09-28T06:32:23.786Z,99.90
2023-09-28T06:34:52.251Z,99.90
2023-09-28T06:37:20.517Z,99.90
2023-09-28T06:39:50.127Z,99.90
2023-09-28T06:42:34.511Z,99.90
2023-09-28T06:45:08.524Z,99.90
2023-09-28T06:47:50.783Z,99.90
2023-09-28T06:50:22.801Z,99.90
2023-09-28T06:52:52.657Z,1.00
2023-09-28T06:55:23.584Z,99.90
2023-09-28T06:57:52.284Z,99.90
2023-09-28T07:00:21.334Z,99.90
2023-09-28T07:02:49.575Z,99.90
2023-09-28T07:05:18.388Z,99.90
2023-09-28T07:07:48.298Z,1.00
2023-09-28T07:10:16.716Z,1.00
2023-09-28T07:12:46.187Z,99.90
2023-09-28T07:15:14.350Z,1.00
2023-09-28T07:17:44.913Z,99.90
2023-09-28T07:20:15.390Z,99.90
2023-09-28T07:22:46.145Z,99.90
2023-09-28T07:25:13.291Z,41.80
2023-09-28T07:27:43.160Z,1.00
2023-09-28T07:30:13.737Z,1.00
2023-09-28T07:32:42.111Z,99.90
2023-09-28T07:35:11.557Z,99.90
2023-09-28T07:37:39.812Z,99.90
2023-09-28T07:40:13.173Z,99.90
2023-09-28T07:42:44.796Z,99.90
2023-09-28T07:45:16.368Z,99.90
2023-09-28T07:47:44.786Z,99.90
2023-09-28T07:50:16.025Z,99.90
2023-09-28T07:52:45.199Z,99.90
2023-09-28T07:55:14.470Z,96.90
2023-09-28T08:00:18.746Z,65.70
2023-09-28T08:02:46.974Z,48.40
2023-09-28T08:05:15.183Z,31.40
2023-09-28T08:07:47.594Z,22.00
2023-09-28T08:10:26.643Z,13.10
2023-09-28T08:12:54.869Z,1.60
2023-09-28T08:15:36.023Z,1.00
2023-09-28T08:18:05.960Z,1.00
2023-09-28T08:20:35.785Z,1.00
2023-09-28T08:23:06.140Z,1.00
2023-09-28T08:25:35.441Z,1.00
2023-09-28T08:28:03.509Z,1.00
2023-09-28T08:30:32.963Z,1.00
2023-09-28T08:33:02.734Z,1.00
2023-09-28T08:35:33.102Z,1.00
2023-09-28T08:38:01.456Z,1.00
2023-09-28T08:40:31.737Z,1.00
2023-09-28T08:43:04.397Z,1.00
2023-09-28T08:45:34.934Z,1.00
2023-09-28T08:48:09.227Z,1.00
2023-09-28T08:50:40.356Z,1.00
2023-09-28T08:53:09.084Z,1.00
2023-09-28T08:55:40.060Z,1.00
2023-09-28T08:58:09.658Z,1.00
2023-09-28T09:00:40.338Z,1.00
2023-09-28T09:03:09.880Z,1.00
2023-09-28T09:05:42.242Z,1.00
2023-09-28T09:08:12.935Z,1.00
2023-09-28T09:10:44.968Z,1.00
2023-09-28T09:13:19.558Z,1.00
2023-09-28T09:15:50.409Z,1.00
2023-09-28T09:18:21.991Z,1.00
2023-09-28T09:20:50.959Z,1.00
2023-09-28T09:23:19.865Z,1.00
2023-09-28T09:25:49.571Z,1.00
2023-09-28T09:28:30.271Z,1.00
2023-09-28T09:31:00.138Z,1.00
2023-09-28T09:33:29.748Z,1.00
2023-09-28T09:35:58.226Z,1.00
2023-09-28T09:38:29.620Z,1.00
2023-09-28T09:41:01.491Z,1.00
2023-09-28T09:43:33.386Z,1.00
2023-09-28T09:46:05.153Z,1.00
2023-09-28T09:48:41.282Z,1.00
2023-09-28T09:51:12.307Z,1.00
2023-09-28T09:53:44.795Z,1.00
2023-09-28T09:56:14.190Z,1.00
2023-09-28T09:58:48.905Z,1.00
2023-09-28T10:01:20.454Z,1.00
2023-09-28T10:03:51.842Z,1.00
2023-09-28T10:06:21.442Z,1.00
2023-09-28T10:08:51.153Z,1.00
2023-09-28T10:11:20.478Z,1.00
2023-09-28T10:13:50.853Z,1.00
2023-09-28T10:16:21.317Z,1.00
2023-09-28T10:18:54.554Z,1.00
2023-09-28T10:21:23.005Z,1.00
2023-09-28T10:23:56.885Z,1.00
2023-09-28T10:26:32.313Z,1.00
2023-09-28T10:29:05.108Z,1.00
2023-09-28T10:31:50.126Z,1.00
2023-09-28T10:34:26.046Z,1.00
2023-09-28T10:37:20.766Z,1.00
2023-09-28T10:39:53.887Z,1.00
2023-09-28T10:42:23.202Z,1.00
2023-09-28T10:44:53.339Z,1.00
2023-09-28T10:47:23.426Z,1.00
2023-09-28T10:50:00.558Z,1.00
2023-09-28T10:52:28.984Z,1.00
2023-09-28T10:54:57.850Z,1.00
2023-09-28T10:57:34.107Z,1.00
2023-09-28T11:00:03.032Z,1.00
2023-09-28T11:02:37.173Z,1.00
2023-09-28T11:05:08.617Z,1.00
2023-09-28T11:07:37.491Z,1.00
2023-09-28T11:10:06.868Z,1.00
2023-09-28T11:12:35.191Z,1.00
2023-09-28T11:15:04.700Z,1.00
2023-09-28T11:17:34.427Z,1.00
2023-09-28T11:20:02.819Z,1.00
2023-09-28T11:22:31.118Z,1.00
2023-09-28T11:24:59.591Z,1.00
2023-09-28T11:27:28.866Z,1.00
2023-09-28T11:29:57.416Z,1.00
2023-09-28T11:32:26.068Z,1.00
2023-09-28T11:34:55.850Z,1.00
2023-09-28T11:37:25.248Z,1.00
2023-09-28T11:39:53.587Z,1.00
2023-09-28T11:42:24.355Z,1.00
2023-09-28T11:44:52.502Z,1.00
2023-09-28T11:47:23.341Z,1.00
2023-09-28T11:49:53.030Z,1.00
2023-09-28T11:52:24.880Z,1.00
2023-09-28T11:54:53.116Z,1.00
2023-09-28T11:57:21.277Z,1.00
2023-09-28T11:59:49.479Z,1.00
2023-09-28T12:02:19.167Z,1.00
2023-09-28T12:04:47.450Z,1.00
2023-09-28T12:07:17.596Z,1.00
2023-09-28T12:10:02.185Z,1.00
2023-09-28T12:12:32.574Z,1.00
2023-09-28T12:15:00.898Z,1.00
2023-09-28T12:17:29.579Z,1.00
2023-09-28T12:19:57.816Z,1.00
2023-09-28T12:22:26.043Z,1.00
2023-09-28T12:24:57.154Z,1.00
2023-09-28T12:27:25.849Z,1.00
2023-09-28T12:29:53.896Z,1.00
2023-09-28T12:32:22.050Z,1.00
2023-09-28T12:34:50.295Z,1.00
2023-09-28T12:37:19.096Z,1.00
2023-09-28T12:39:47.127Z,1.00
2023-09-28T12:42:16.799Z,1.00
2023-09-28T12:44:45.526Z,1.00
2023-09-28T12:47:14.510Z,1.00
2023-09-28T12:49:43.745Z,1.00
2023-09-28T12:52:21.747Z,1.00
2023-09-28T12:54:50.136Z,1.00
2023-09-28T12:57:19.670Z,1.00
2023-09-28T12:59:47.976Z,1.00
2023-09-28T13:02:16.386Z,1.00
2023-09-28T13:04:46.001Z,1.00
2023-09-28T13:07:14.417Z,1.00
2023-09-28T13:09:44.230Z,1.00
2023-09-28T13:12:13.431Z,1.00
2023-09-28T13:14:44.429Z,1.00
2023-09-28T13:17:14.017Z,1.00
2023-09-28T13:19:44.646Z,1.00
2023-09-28T13:22:14.860Z,1.00
2023-09-28T13:24:45.432Z,1.00
2023-09-28T13:27:13.555Z,1.00
2023-09-28T13:29:43.312Z,1.00
2023-09-28T13:32:14.244Z,1.00
2023-09-28T13:34:43.394Z,1.00
2023-09-28T13:37:12.592Z,1.00
2023-09-28T13:39:40.749Z,1.00
2023-09-28T13:42:10.851Z,1.00
2023-09-28T13:44:40.792Z,1.00
2023-09-28T13:47:10.598Z,1.00
2023-09-28T13:49:39.251Z,1.00
2023-09-28T13:52:09.263Z,1.00
2023-09-28T13:54:37.620Z,1.00
2023-09-28T13:57:08.913Z,1.00
2023-09-28T13:59:38.884Z,1.00
2023-09-28T14:02:09.200Z,1.00
2023-09-28T14:04:38.779Z,1.00
2023-09-28T14:07:06.836Z,1.00
2023-09-28T14:09:34.997Z,1.00
2023-09-28T14:12:05.540Z,1.00
2023-09-28T14:14:34.088Z,1.00
2023-09-28T14:17:09.924Z,1.00
2023-09-28T14:19:40.977Z,1.00
2023-09-28T14:22:09.110Z,1.00
2023-09-28T14:24:37.247Z,1.00
2023-09-28T14:27:05.502Z,1.00
2023-09-28T14:29:34.791Z,1.00
2023-09-28T14:32:03.275Z,1.00
2023-09-28T14:34:31.377Z,1.00
2023-09-28T14:37:00.956Z,1.00
2023-09-28T14:39:29.849Z,1.00
2023-09-28T14:41:57.991Z,1.00
2023-09-28T14:44:26.205Z,1.00
2023-09-28T14:46:54.424Z,1.00
2023-09-28T14:49:22.606Z,1.00
2023-09-28T14:51:51.012Z,1.00
2023-09-28T14:54:20.695Z,1.00
2023-09-28T14:56:57.929Z,1.00
2023-09-28T14:59:26.043Z,1.00
2023-09-28T15:01:54.152Z,1.00
2023-09-28T15:04:22.195Z,1.00
2023-09-28T15:06:50.273Z,1.00
2023-09-28T15:09:19.792Z,1.00
2023-09-28T15:11:49.222Z,1.00
2023-09-28T15:14:17.327Z,1.00
2023-09-28T15:16:49.139Z,2.90
2023-09-28T15:19:17.276Z,9.90
2023-09-28T15:21:45.325Z,25.20
2023-09-28T15:24:15.370Z,48.40
2023-09-28T15:26:43.610Z,76.70
2023-09-28T15:29:14.895Z,95.90
2023-09-28T15:31:43.324Z,99.90
2023-09-28T15:34:11.766Z,99.90
2023-09-28T15:36:39.911Z,99.90
2023-09-28T15:39:08.748Z,99.90
2023-09-28T15:41:38.105Z,99.90
2023-09-28T15:44:07.172Z,99.90
2023-09-28T15:46:37.257Z,99.90
2023-09-28T15:49:06.301Z,99.90
2023-09-28T15:51:35.270Z,1.00
2023-09-28T15:54:04.429Z,1.00
2023-09-28T15:56:32.815Z,1.00
2023-09-28T15:59:00.938Z,1.00
2023-09-28T16:01:29.039Z,22.60
2023-09-28T16:03:58.625Z,4.50
2023-09-28T16:06:26.938Z,71.80
2023-09-28T16:08:55.239Z,18.80
2023-09-28T16:11:23.547Z,82.40
2023-09-28T16:13:51.723Z,94.70
2023-09-28T16:16:21.352Z,99.90
2023-09-28T16:18:49.658Z,99.90
2023-09-28T16:21:19.167Z,99.90
2023-09-28T16:23:47.408Z,99.90
2023-09-28T16:26:15.673Z,99.90
2023-09-28T16:28:44.010Z,99.90
2023-09-28T16:31:12.224Z,99.90
2023-09-28T16:33:41.629Z,99.90
2023-09-28T16:36:09.999Z,99.90
2023-09-28T16:38:39.660Z,99.90
2023-09-28T16:41:07.839Z,1.00
2023-09-28T16:43:35.961Z,1.00
2023-09-28T16:46:04.698Z,1.00
2023-09-28T16:48:33.155Z,1.00
2023-09-28T16:51:01.279Z,99.90
2023-09-28T16:53:29.408Z,99.90
2023-09-28T16:55:59.039Z,99.90
2023-09-28T16:58:27.147Z,99.90
2023-09-28T17:00:55.218Z,99.90
2023-09-28T17:03:23.491Z,99.90
2023-09-28T17:05:52.222Z,99.90
2023-09-28T17:08:20.457Z,99.90
2023-09-28T17:10:48.857Z,99.90
2023-09-28T17:13:18.422Z,99.90
2023-09-28T17:15:49.663Z,99.90
2023-09-28T17:18:21.470Z,1.00
2023-09-28T17:20:50.689Z,1.00
2023-09-28T17:23:19.198Z,1.00
2023-09-28T17:25:47.416Z,1.00
2023-09-28T17:28:15.514Z,1.00
2023-09-28T17:30:47.304Z,99.90
2023-09-28T17:33:15.781Z,1.00
2023-09-28T17:35:44.308Z,1.00
2023-09-28T17:38:12.588Z,1.00
2023-09-28T17:40:40.784Z,15.00
2023-09-28T17:43:08.914Z,99.90
2023-09-28T17:45:37.099Z,99.90
2023-09-28T17:48:09.354Z,99.90
2023-09-28T17:50:38.131Z,1.00
2023-09-28T17:53:07.528Z,28.10
2023-09-28T17:55:38.148Z,99.90
2023-09-28T17:58:06.545Z,99.90
2023-09-28T18:00:34.726Z,1.00
2023-09-28T18:03:04.589Z,1.00
2023-09-28T18:05:34.331Z,99.90
2023-09-28T18:08:02.599Z,99.90
2023-09-28T18:10:32.566Z,1.00
2023-09-28T18:13:03.189Z,1.00
2023-09-28T18:15:32.387Z,99.90
2023-09-28T18:18:00.573Z,99.90
2023-09-28T18:20:28.740Z,99.90
2023-09-28T18:22:58.308Z,99.90
2023-09-28T18:25:26.808Z,1.00
2023-09-28T18:27:55.311Z,99.90
2023-09-28T18:30:23.579Z,99.90
2023-09-28T18:32:55.360Z,99.90
2023-09-28T18:35:23.933Z,99.90
2023-09-28T18:37:52.092Z,1.00
2023-09-28T18:40:21.586Z,99.90
2023-09-28T18:42:49.765Z,99.90
2023-09-28T18:45:18.050Z,1.00
2023-09-28T18:47:47.436Z,83.70
2023-09-28T18:50:18.929Z,99.90
2023-09-28T18:52:50.225Z,99.90
2023-09-28T18:55:18.452Z,99.90
2023-09-28T18:57:47.890Z,1.00
2023-09-28T19:00:17.283Z,1.00
2023-09-28T19:02:45.819Z,1.00
2023-09-28T19:05:15.103Z,1.00
2023-09-28T19:07:43.293Z,43.10
2023-09-28T19:10:11.812Z,99.90
2023-09-28T19:12:39.953Z,99.90
2023-09-28T19:15:12.514Z,99.90
2023-09-28T19:17:40.803Z,99.90
2023-09-28T19:20:10.375Z,99.90
2023-09-28T19:22:38.532Z,99.90
2023-09-28T19:25:09.182Z,99.90
2023-09-28T19:27:39.498Z,99.90
2023-09-28T19:30:11.228Z,99.90
2023-09-28T19:32:39.594Z,99.90
2023-09-28T19:35:09.764Z,99.90
2023-09-28T19:37:39.777Z,99.90
2023-09-28T19:40:10.574Z,99.90
2023-09-28T19:42:41.036Z,99.90
2023-09-28T19:45:12.738Z,99.90
2023-09-28T19:47:41.272Z,99.90
2023-09-28T19:50:10.473Z,99.90
2023-09-28T19:52:38.572Z,99.90
2023-09-28T19:55:09.798Z,99.90
2023-09-28T19:57:37.990Z,99.90
2023-09-28T20:00:07.022Z,99.90
2023-09-28T20:02:36.580Z,1.00
2023-09-28T20:05:05.796Z,1.00
2023-09-28T20:07:34.793Z,99.90
2023-09-28T20:10:02.951Z,99.90
2023-09-28T20:12:30.961Z,99.90
2023-09-28T20:14:58.992Z,99.90
2023-09-28T20:17:27.125Z,1.00
2023-09-28T20:19:56.807Z,1.00
2023-09-28T20:22:26.130Z,1.00
2023-09-28T20:24:54.597Z,62.10
2023-09-28T20:27:22.725Z,99.90
2023-09-28T20:29:50.922Z,99.90
2023-09-28T20:32:19.082Z,99.90
2023-09-28T20:34:47.166Z,99.90
2023-09-28T20:37:16.672Z,99.90
2023-09-28T20:39:44.749Z,99.90
2023-09-28T20:42:13.105Z,99.90
2023-09-28T20:44:41.348Z,99.90
2023-09-28T20:47:09.587Z,99.90
2023-09-28T20:49:37.927Z,99.90
2023-09-28T20:52:06.075Z,99.90
2023-09-28T20:54:35.636Z,99.90
2023-09-28T20:57:03.878Z,99.90
2023-09-28T20:59:32.279Z,99.90
2023-09-28T21:02:01.151Z,1.00
2023-09-28T21:04:29.321Z,1.00
2023-09-28T21:06:57.504Z,1.00
2023-09-28T21:09:25.657Z,1.00
2023-09-28T21:11:55.816Z,1.00
2023-09-28T21:14:24.285Z,1.00
2023-09-28T21:16:52.641Z,1.00
2023-09-28T21:19:20.911Z,1.00
2023-09-28T21:21:49.000Z,1.00
2023-09-28T21:24:17.070Z,1.00
2023-09-28T21:26:45.355Z,1.00
2023-09-28T21:29:15.010Z,1.00
2023-09-28T21:31:43.118Z,1.00
2023-09-28T21:34:11.344Z,1.00
2023-09-28T21:36:39.656Z,1.00
2023-09-28T21:39:07.863Z,1.00
2023-09-28T21:41:36.109Z,1.00
2023-09-28T21:44:04.255Z,1.00
2023-09-28T21:46:33.652Z,1.00
2023-09-28T21:49:01.767Z,1.00
2023-09-28T21:51:29.997Z,1.00
2023-09-28T21:53:58.143Z,1.00
2023-09-28T21:56:27.022Z,1.00
2023-09-28T21:58:55.695Z,1.00
2023-09-28T22:01:24.083Z,1.00
2023-09-28T22:03:53.584Z,1.00
2023-09-28T22:06:21.765Z,1.00
2023-09-28T22:08:50.006Z,1.00
2023-09-28T22:11:18.177Z,1.00
2023-09-28T22:13:46.497Z,1.00
2023-09-28T22:16:15.796Z,1.00
2023-09-28T22:18:43.990Z,1.00
2023-09-28T22:21:13.546Z,1.00
2023-09-28T22:23:41.685Z,1.00
2023-09-28T22:26:09.899Z,1.00
2023-09-28T22:28:38.070Z,1.00
2023-09-28T22:31:06.216Z,1.00
2023-09-28T22:33:35.787Z,1.00
2023-09-28T22:36:04.240Z,1.00
2023-09-28T22:38:34.204Z,1.00
2023-09-28T22:41:02.465Z,1.00
2023-09-28T22:43:30.601Z,1.00
2023-09-28T22:45:59.527Z,1.00
2023-09-28T22:48:27.815Z,1.00
2023-09-28T22:50:56.025Z,1.00
2023-09-28T22:53:24.183Z,1.00
2023-09-28T22:55:54.196Z,1.00
2023-09-28T22:58:22.285Z,1.00
2023-09-28T23:00:50.399Z,1.00
2023-09-28T23:03:18.527Z,1.00
2023-09-28T23:05:49.269Z,1.00
2023-09-28T23:08:18.353Z,1.00
2023-09-28T23:10:46.427Z,1.00
2023-09-28T23:13:17.258Z,1.00
2023-09-28T23:15:46.734Z,1.00
2023-09-28T23:18:15.036Z,1.00
2023-09-28T23:20:46.210Z,1.00
2023-09-28T23:23:16.814Z,1.00
2023-09-28T23:25:45.114Z,1.00
2023-09-28T23:28:13.244Z,1.00
2023-09-28T23:30:44.314Z,1.00
2023-09-28T23:33:12.585Z,1.00
2023-09-28T23:35:41.655Z,1.00
2023-09-28T23:38:11.604Z,1.00
2023-09-28T23:40:40.029Z,3.70
2023-09-28T23:43:09.776Z,1.50
2023-09-28T23:45:39.029Z,1.00
2023-09-28T23:48:10.619Z,1.00
2023-09-28T23:50:38.880Z,1.00
2023-09-28T23:53:10.553Z,1.00
2023-09-28T23:55:40.237Z,1.00
2023-09-28T23:58:08.328Z,1.00
